sensor_id;sensor_type;location;lat;lon;timestamp;temperature;humidity
19924;DHT22;10124;53.068;18.224;2023-06-14T00:01:59;14.30;1.00
19924;DHT22;10124;53.068;18.224;2023-06-14T00:04:27;14.30;1.00
19924;DHT22;10124;53.068;18.224;2023-06-14T00:06:56;14.30;1.00
19924;DHT22;10124;53.068;18.224;2023-06-14T00:09:24;14.30;1.00
19924;DHT22;10124;53.068;18.224;2023-06-14T00:11:51;13.80;1.00
19924;DHT22;10124;53.068;18.224;2023-06-14T00:14:19;14.00;1.00
19924;DHT22;10124;53.068;18.224;2023-06-14T00:16:47;14.40;1.00
19924;DHT22;10124;53.068;18.224;2023-06-14T00:19:15;14.80;1.00
19924;DHT22;10124;53.068;18.224;2023-06-14T00:21:43;14.40;1.00
19924;DHT22;10124;53.068;18.224;2023-06-14T00:24:11;15.60;1.00
19924;DHT22;10124;53.068;18.224;2023-06-14T00:26:39;14.10;1.00
19924;DHT22;10124;53.068;18.224;2023-06-14T00:29:07;14.60;1.00
19924;DHT22;10124;53.068;18.224;2023-06-14T00:31:36;14.60;1.00
19924;DHT22;10124;53.068;18.224;2023-06-14T00:34:03;16.00;1.00
19924;DHT22;10124;53.068;18.224;2023-06-14T00:36:31;14.40;1.00
19924;DHT22;10124;53.068;18.224;2023-06-14T00:38:59;13.80;1.00
19924;DHT22;10124;53.068;18.224;2023-06-14T00:41:26;14.10;1.00
19924;DHT22;10124;53.068;18.224;2023-06-14T00:43:54;14.10;1.00
19924;DHT22;10124;53.068;18.224;2023-06-14T00:46:23;14.10;1.00
19924;DHT22;10124;53.068;18.224;2023-06-14T00:48:52;14.20;1.00
19924;DHT22;10124;53.068;18.224;2023-06-14T00:51:20;13.50;1.00
19924;DHT22;10124;53.068;18.224;2023-06-14T00:53:48;14.20;1.00
19924;DHT22;10124;53.068;18.224;2023-06-14T00:56:16;14.10;1.00
19924;DHT22;10124;53.068;18.224;2023-06-14T00:58:50;14.00;1.00
19924;DHT22;10124;53.068;18.224;2023-06-14T01:01:19;13.90;1.00
19924;DHT22;10124;53.068;18.224;2023-06-14T01:03:47;14.00;1.00
19924;DHT22;10124;53.068;18.224;2023-06-14T01:09:01;13.70;1.00
19924;DHT22;10124;53.068;18.224;2023-06-14T01:11:44;13.70;1.00
19924;DHT22;10124;53.068;18.224;2023-06-14T01:14:16;13.60;1.00
19924;DHT22;10124;53.068;18.224;2023-06-14T01:16:46;13.60;1.00
19924;DHT22;10124;53.068;18.224;2023-06-14T01:19:14;13.60;1.00
19924;DHT22;10124;53.068;18.224;2023-06-14T01:21:42;13.60;1.00
19924;DHT22;10124;53.068;18.224;2023-06-14T01:24:10;13.50;1.00
19924;DHT22;10124;53.068;18.224;2023-06-14T01:26:39;13.50;1.00
19924;DHT22;10124;53.068;18.224;2023-06-14T01:29:14;13.50;1.00
19924;DHT22;10124;53.068;18.224;2023-06-14T01:31:45;13.40;1.00
19924;DHT22;10124;53.068;18.224;2023-06-14T01:34:13;13.40;1.00
19924;DHT22;10124;53.068;18.224;2023-06-14T01:36:44;14.80;1.00
19924;DHT22;10124;53.068;18.224;2023-06-14T01:39:14;13.40;1.30
19924;DHT22;10124;53.068;18.224;2023-06-14T01:41:45;13.40;16.10
19924;DHT22;10124;53.068;18.224;2023-06-14T01:44:16;13.50;36.60
19924;DHT22;10124;53.068;18.224;2023-06-14T01:46:45;13.80;79.00
19924;DHT22;10124;53.068;18.224;2023-06-14T01:49:14;13.40;78.40
19924;DHT22;10124;53.068;18.224;2023-06-14T01:51:42;13.70;99.90
19924;DHT22;10124;53.068;18.224;2023-06-14T01:54:09;13.30;99.90
19924;DHT22;10124;53.068;18.224;2023-06-14T01:56:38;13.50;99.90
19924;DHT22;10124;53.068;18.224;2023-06-14T02:04:02;13.40;99.90
19924;DHT22;10124;53.068;18.224;2023-06-14T02:06:29;13.30;99.90
19924;DHT22;10124;53.068;18.224;2023-06-14T02:08:57;13.30;99.90
19924;DHT22;10124;53.068;18.224;2023-06-14T02:11:28;13.30;99.90
19924;DHT22;10124;53.068;18.224;2023-06-14T02:13:56;13.40;99.90
19924;DHT22;10124;53.068;18.224;2023-06-14T02:16:24;13.40;99.90
19924;DHT22;10124;53.068;18.224;2023-06-14T02:18:52;13.40;99.90
19924;DHT22;10124;53.068;18.224;2023-06-14T02:21:19;13.40;99.90
19924;DHT22;10124;53.068;18.224;2023-06-14T02:23:47;13.40;99.90
19924;DHT22;10124;53.068;18.224;2023-06-14T02:26:15;13.40;99.90
19924;DHT22;10124;53.068;18.224;2023-06-14T02:28:42;13.50;99.90
19924;DHT22;10124;53.068;18.224;2023-06-14T02:31:10;13.40;99.90
19924;DHT22;10124;53.068;18.224;2023-06-14T02:33:38;13.40;99.90
19924;DHT22;10124;53.068;18.224;2023-06-14T02:36:06;13.40;99.90
19924;DHT22;10124;53.068;18.224;2023-06-14T02:38:34;13.40;99.90
19924;DHT22;10124;53.068;18.224;2023-06-14T02:41:02;13.50;99.90
19924;DHT22;10124;53.068;18.224;2023-06-14T02:43:30;13.50;99.90
19924;DHT22;10124;53.068;18.224;2023-06-14T02:45:58;13.50;99.90
19924;DHT22;10124;53.068;18.224;2023-06-14T02:48:27;13.50;99.90
19924;DHT22;10124;53.068;18.224;2023-06-14T02:50:55;13.50;99.90
19924;DHT22;10124;53.068;18.224;2023-06-14T02:53:23;13.60;99.90
19924;DHT22;10124;53.068;18.224;2023-06-14T02:55:51;13.50;99.90
19924;DHT22;10124;53.068;18.224;2023-06-14T02:58:20;13.50;99.90
19924;DHT22;10124;53.068;18.224;2023-06-14T03:00:47;13.70;99.90
19924;DHT22;10124;53.068;18.224;2023-06-14T03:03:15;13.50;99.90
19924;DHT22;10124;53.068;18.224;2023-06-14T03:05:51;13.50;99.90
19924;DHT22;10124;53.068;18.224;2023-06-14T03:08:23;13.50;99.90
19924;DHT22;10124;53.068;18.224;2023-06-14T03:10:56;13.50;99.90
19924;DHT22;10124;53.068;18.224;2023-06-14T03:13:24;13.50;99.90
19924;DHT22;10124;53.068;18.224;2023-06-14T03:15:54;13.60;99.90
19924;DHT22;10124;53.068;18.224;2023-06-14T03:18:24;13.50;99.90
19924;DHT22;10124;53.068;18.224;2023-06-14T03:20:56;13.50;99.90
19924;DHT22;10124;53.068;18.224;2023-06-14T03:23:27;13.50;99.90
19924;DHT22;10124;53.068;18.224;2023-06-14T03:25:55;13.40;99.90
19924;DHT22;10124;53.068;18.224;2023-06-14T03:28:24;13.40;99.90
19924;DHT22;10124;53.068;18.224;2023-06-14T03:30:52;13.40;99.90
19924;DHT22;10124;53.068;18.224;2023-06-14T03:33:22;13.00;99.90
19924;DHT22;10124;53.068;18.224;2023-06-14T03:35:49;13.40;99.90
19924;DHT22;10124;53.068;18.224;2023-06-14T03:38:17;13.20;99.90
19924;DHT22;10124;53.068;18.224;2023-06-14T03:40:45;13.20;99.90
19924;DHT22;10124;53.068;18.224;2023-06-14T03:43:13;13.40;99.90
19924;DHT22;10124;53.068;18.224;2023-06-14T03:45:41;13.30;99.90
19924;DHT22;10124;53.068;18.224;2023-06-14T03:48:09;13.10;99.90
19924;DHT22;10124;53.068;18.224;2023-06-14T03:50:37;13.10;99.90
19924;DHT22;10124;53.068;18.224;2023-06-14T03:53:06;13.20;99.90
19924;DHT22;10124;53.068;18.224;2023-06-14T03:55:36;13.10;99.90
19924;DHT22;10124;53.068;18.224;2023-06-14T03:58:32;13.20;99.90
19924;DHT22;10124;53.068;18.224;2023-06-14T04:01:01;13.30;99.90
19924;DHT22;10124;53.068;18.224;2023-06-14T04:03:31;13.70;99.90
19924;DHT22;10124;53.068;18.224;2023-06-14T04:06:00;13.60;99.90
19924;DHT22;10124;53.068;18.224;2023-06-14T04:08:29;13.20;99.90
19924;DHT22;10124;53.068;18.224;2023-06-14T04:10:58;13.00;99.90
19924;DHT22;10124;53.068;18.224;2023-06-14T04:13:26;13.20;99.90
19924;DHT22;10124;53.068;18.224;2023-06-14T04:15:53;13.40;99.90
19924;DHT22;10124;53.068;18.224;2023-06-14T04:20:56;13.20;99.90
19924;DHT22;10124;53.068;18.224;2023-06-14T04:23:24;13.60;99.90
19924;DHT22;10124;53.068;18.224;2023-06-14T04:25:52;13.40;99.90
19924;DHT22;10124;53.068;18.224;2023-06-14T04:40:53;14.30;99.90
19924;DHT22;10124;53.068;18.224;2023-06-14T04:43:23;13.80;99.90
19924;DHT22;10124;53.068;18.224;2023-06-14T04:45:55;14.00;99.90
19924;DHT22;10124;53.068;18.224;2023-06-14T04:48:25;14.10;99.90
19924;DHT22;10124;53.068;18.224;2023-06-14T04:50:54;14.20;99.90
19924;DHT22;10124;53.068;18.224;2023-06-14T04:53:21;14.30;99.90
19924;DHT22;10124;53.068;18.224;2023-06-14T04:55:54;14.00;99.90
19924;DHT22;10124;53.068;18.224;2023-06-14T04:58:23;14.00;99.90
19924;DHT22;10124;53.068;18.224;2023-06-14T05:00:52;13.70;99.90
19924;DHT22;10124;53.068;18.224;2023-06-14T05:03:21;14.30;99.90
19924;DHT22;10124;53.068;18.224;2023-06-14T05:05:49;14.10;99.90
19924;DHT22;10124;53.068;18.224;2023-06-14T05:08:18;14.50;99.90
19924;DHT22;10124;53.068;18.224;2023-06-14T05:10:48;14.70;99.90
19924;DHT22;10124;53.068;18.224;2023-06-14T05:13:17;14.30;99.90
19924;DHT22;10124;53.068;18.224;2023-06-14T05:15:46;15.00;99.90
19924;DHT22;10124;53.068;18.224;2023-06-14T05:18:15;15.40;99.90
19924;DHT22;10124;53.068;18.224;2023-06-14T05:20:43;15.30;99.90
19924;DHT22;10124;53.068;18.224;2023-06-14T05:23:12;14.40;99.90
19924;DHT22;10124;53.068;18.224;2023-06-14T05:25:44;15.00;99.90
19924;DHT22;10124;53.068;18.224;2023-06-14T05:28:13;14.90;99.90
19924;DHT22;10124;53.068;18.224;2023-06-14T05:30:40;15.00;99.90
19924;DHT22;10124;53.068;18.224;2023-06-14T05:33:09;15.20;99.90
19924;DHT22;10124;53.068;18.224;2023-06-14T05:35:38;15.40;99.90
19924;DHT22;10124;53.068;18.224;2023-06-14T05:38:06;15.40;99.90
19924;DHT22;10124;53.068;18.224;2023-06-14T05:40:34;15.40;99.90
19924;DHT22;10124;53.068;18.224;2023-06-14T05:43:02;15.50;99.90
19924;DHT22;10124;53.068;18.224;2023-06-14T05:45:30;15.60;99.90
19924;DHT22;10124;53.068;18.224;2023-06-14T05:47:58;15.80;99.90
19924;DHT22;10124;53.068;18.224;2023-06-14T05:50:26;16.00;99.90
19924;DHT22;10124;53.068;18.224;2023-06-14T05:52:54;16.20;99.90
19924;DHT22;10124;53.068;18.224;2023-06-14T05:55:22;16.30;1.00
19924;DHT22;10124;53.068;18.224;2023-06-14T05:57:49;16.30;1.00
19924;DHT22;10124;53.068;18.224;2023-06-14T06:00:17;16.40;1.00
19924;DHT22;10124;53.068;18.224;2023-06-14T06:02:47;16.40;1.00
19924;DHT22;10124;53.068;18.224;2023-06-14T06:05:15;16.30;1.00
19924;DHT22;10124;53.068;18.224;2023-06-14T06:07:43;16.30;1.00
19924;DHT22;10124;53.068;18.224;2023-06-14T06:10:13;16.40;1.00
19924;DHT22;10124;53.068;18.224;2023-06-14T06:12:41;16.40;1.00
19924;DHT22;10124;53.068;18.224;2023-06-14T06:15:09;16.40;1.00
19924;DHT22;10124;53.068;18.224;2023-06-14T06:20:22;16.20;1.00
19924;DHT22;10124;53.068;18.224;2023-06-14T06:22:57;16.50;1.00
19924;DHT22;10124;53.068;18.224;2023-06-14T06:25:27;16.70;1.00
19924;DHT22;10124;53.068;18.224;2023-06-14T06:27:55;17.50;1.00
19924;DHT22;10124;53.068;18.224;2023-06-14T06:30:24;16.80;1.00
19924;DHT22;10124;53.068;18.224;2023-06-14T06:32:52;17.20;1.00
19924;DHT22;10124;53.068;18.224;2023-06-14T06:35:20;17.30;1.00
19924;DHT22;10124;53.068;18.224;2023-06-14T06:37:48;17.20;1.00
19924;DHT22;10124;53.068;18.224;2023-06-14T06:40:15;17.00;1.00
19924;DHT22;10124;53.068;18.224;2023-06-14T06:42:43;16.80;1.00
19924;DHT22;10124;53.068;18.224;2023-06-14T06:45:13;16.80;1.00
19924;DHT22;10124;53.068;18.224;2023-06-14T06:47:41;16.80;1.00
19924;DHT22;10124;53.068;18.224;2023-06-14T06:50:09;16.80;1.00
19924;DHT22;10124;53.068;18.224;2023-06-14T06:52:36;17.00;1.00
19924;DHT22;10124;53.068;18.224;2023-06-14T06:55:04;17.20;1.00
19924;DHT22;10124;53.068;18.224;2023-06-14T06:57:33;16.80;1.00
19924;DHT22;10124;53.068;18.224;2023-06-14T07:00:01;17.10;1.00
19924;DHT22;10124;53.068;18.224;2023-06-14T07:02:29;17.20;1.00
19924;DHT22;10124;53.068;18.224;2023-06-14T07:04:58;17.10;1.00
19924;DHT22;10124;53.068;18.224;2023-06-14T07:07:26;17.30;1.00
19924;DHT22;10124;53.068;18.224;2023-06-14T07:09:53;16.60;1.00
19924;DHT22;10124;53.068;18.224;2023-06-14T07:12:21;17.10;1.00
19924;DHT22;10124;53.068;18.224;2023-06-14T07:14:49;17.00;1.00
19924;DHT22;10124;53.068;18.224;2023-06-14T07:17:17;16.90;1.00
19924;DHT22;10124;53.068;18.224;2023-06-14T07:19:45;16.90;1.00
19924;DHT22;10124;53.068;18.224;2023-06-14T07:22:15;17.30;1.00
19924;DHT22;10124;53.068;18.224;2023-06-14T07:24:42;17.00;1.00
19924;DHT22;10124;53.068;18.224;2023-06-14T07:27:11;17.30;1.00
19924;DHT22;10124;53.068;18.224;2023-06-14T07:29:41;16.90;1.00
19924;DHT22;10124;53.068;18.224;2023-06-14T07:32:09;17.30;1.00
19924;DHT22;10124;53.068;18.224;2023-06-14T07:34:37;17.80;1.00
19924;DHT22;10124;53.068;18.224;2023-06-14T07:37:04;17.50;1.00
19924;DHT22;10124;53.068;18.224;2023-06-14T07:39:32;17.70;1.00
19924;DHT22;10124;53.068;18.224;2023-06-14T07:41:59;17.90;1.00
19924;DHT22;10124;53.068;18.224;2023-06-14T07:44:29;18.10;1.00
19924;DHT22;10124;53.068;18.224;2023-06-14T07:46:58;18.30;1.00
19924;DHT22;10124;53.068;18.224;2023-06-14T07:49:27;18.30;1.00
19924;DHT22;10124;53.068;18.224;2023-06-14T07:51:55;18.80;1.00
19924;DHT22;10124;53.068;18.224;2023-06-14T07:54:22;19.10;1.00
19924;DHT22;10124;53.068;18.224;2023-06-14T07:56:53;19.10;1.00
19924;DHT22;10124;53.068;18.224;2023-06-14T07:59:21;19.40;1.00
19924;DHT22;10124;53.068;18.224;2023-06-14T08:01:49;20.20;1.00
19924;DHT22;10124;53.068;18.224;2023-06-14T08:04:16;20.40;1.00
19924;DHT22;10124;53.068;18.224;2023-06-14T08:06:44;20.60;1.00
19924;DHT22;10124;53.068;18.224;2023-06-14T08:09:13;20.90;1.00
19924;DHT22;10124;53.068;18.224;2023-06-14T08:11:41;20.80;1.00
19924;DHT22;10124;53.068;18.224;2023-06-14T08:14:08;20.70;1.00
19924;DHT22;10124;53.068;18.224;2023-06-14T08:16:36;20.00;1.00
19924;DHT22;10124;53.068;18.224;2023-06-14T08:19:04;20.20;1.00
19924;DHT22;10124;53.068;18.224;2023-06-14T08:21:32;20.00;1.00
19924;DHT22;10124;53.068;18.224;2023-06-14T08:24:00;19.70;1.00
19924;DHT22;10124;53.068;18.224;2023-06-14T08:26:28;19.20;1.00
19924;DHT22;10124;53.068;18.224;2023-06-14T08:28:56;19.50;1.00
19924;DHT22;10124;53.068;18.224;2023-06-14T08:31:24;19.30;1.00
19924;DHT22;10124;53.068;18.224;2023-06-14T08:33:56;19.10;1.00
19924;DHT22;10124;53.068;18.224;2023-06-14T08:36:23;19.50;1.00
19924;DHT22;10124;53.068;18.224;2023-06-14T08:38:51;19.70;1.00
19924;DHT22;10124;53.068;18.224;2023-06-14T08:41:21;19.70;1.00
19924;DHT22;10124;53.068;18.224;2023-06-14T08:43:49;20.00;1.00
19924;DHT22;10124;53.068;18.224;2023-06-14T08:46:18;20.30;1.00
19924;DHT22;10124;53.068;18.224;2023-06-14T08:51:19;20.30;1.00
19924;DHT22;10124;53.068;18.224;2023-06-14T08:53:55;19.30;1.00
19924;DHT22;10124;53.068;18.224;2023-06-14T08:56:26;20.20;1.00
19924;DHT22;10124;53.068;18.224;2023-06-14T08:58:59;20.00;1.00
19924;DHT22;10124;53.068;18.224;2023-06-14T09:01:35;20.20;1.00
19924;DHT22;10124;53.068;18.224;2023-06-14T09:04:03;20.00;1.00
19924;DHT22;10124;53.068;18.224;2023-06-14T09:06:33;20.80;1.00
19924;DHT22;10124;53.068;18.224;2023-06-14T09:09:00;20.90;1.00
19924;DHT22;10124;53.068;18.224;2023-06-14T09:11:30;20.40;1.00
19924;DHT22;10124;53.068;18.224;2023-06-14T09:13:58;20.50;1.00
19924;DHT22;10124;53.068;18.224;2023-06-14T09:16:25;20.70;1.00
19924;DHT22;10124;53.068;18.224;2023-06-14T09:18:54;20.50;1.00
19924;DHT22;10124;53.068;18.224;2023-06-14T09:21:23;20.50;1.00
19924;DHT22;10124;53.068;18.224;2023-06-14T09:23:51;20.60;1.00
19924;DHT22;10124;53.068;18.224;2023-06-14T09:26:19;20.60;1.00
19924;DHT22;10124;53.068;18.224;2023-06-14T09:28:48;20.50;1.00
19924;DHT22;10124;53.068;18.224;2023-06-14T09:31:18;20.80;1.00
19924;DHT22;10124;53.068;18.224;2023-06-14T09:33:47;20.60;1.00
19924;DHT22;10124;53.068;18.224;2023-06-14T09:36:23;20.50;1.00
19924;DHT22;10124;53.068;18.224;2023-06-14T09:38:58;21.60;1.00
19924;DHT22;10124;53.068;18.224;2023-06-14T09:41:34;21.10;1.00
19924;DHT22;10124;53.068;18.224;2023-06-14T09:44:04;21.40;1.00
19924;DHT22;10124;53.068;18.224;2023-06-14T09:46:39;22.00;1.00
19924;DHT22;10124;53.068;18.224;2023-06-14T09:49:08;22.80;1.00
19924;DHT22;10124;53.068;18.224;2023-06-14T09:51:42;23.90;1.00
19924;DHT22;10124;53.068;18.224;2023-06-14T09:54:15;23.40;1.00
19924;DHT22;10124;53.068;18.224;2023-06-14T09:56:47;23.50;1.00
19924;DHT22;10124;53.068;18.224;2023-06-14T09:59:19;23.40;1.00
19924;DHT22;10124;53.068;18.224;2023-06-14T10:01:49;23.20;1.00
19924;DHT22;10124;53.068;18.224;2023-06-14T10:04:18;23.10;1.00
19924;DHT22;10124;53.068;18.224;2023-06-14T10:06:47;23.40;1.00
19924;DHT22;10124;53.068;18.224;2023-06-14T10:09:17;22.90;1.00
19924;DHT22;10124;53.068;18.224;2023-06-14T10:11:45;22.20;1.00
19924;DHT22;10124;53.068;18.224;2023-06-14T10:14:13;22.10;1.00
19924;DHT22;10124;53.068;18.224;2023-06-14T10:17:04;21.80;1.00
19924;DHT22;10124;53.068;18.224;2023-06-14T10:19:48;21.80;1.00
19924;DHT22;10124;53.068;18.224;2023-06-14T10:22:30;21.80;1.00
19924;DHT22;10124;53.068;18.224;2023-06-14T10:24:59;21.70;1.00
19924;DHT22;10124;53.068;18.224;2023-06-14T10:27:28;21.80;1.00
19924;DHT22;10124;53.068;18.224;2023-06-14T10:32:28;22.10;1.00
19924;DHT22;10124;53.068;18.224;2023-06-14T10:35:00;23.20;1.00
19924;DHT22;10124;53.068;18.224;2023-06-14T10:37:29;23.50;1.00
19924;DHT22;10124;53.068;18.224;2023-06-14T10:39:56;24.10;1.00
19924;DHT22;10124;53.068;18.224;2023-06-14T10:42:34;23.90;99.90
19924;DHT22;10124;53.068;18.224;2023-06-14T10:52:38;26.10;99.90
19924;DHT22;10124;53.068;18.224;2023-06-14T10:55:11;26.90;99.90
19924;DHT22;10124;53.068;18.224;2023-06-14T11:00:21;27.70;82.50
19924;DHT22;10124;53.068;18.224;2023-06-14T11:03:16;26.20;99.90
19924;DHT22;10124;53.068;18.224;2023-06-14T11:05:55;27.40;46.60
19924;DHT22;10124;53.068;18.224;2023-06-14T11:13:39;26.30;72.80
19924;DHT22;10124;53.068;18.224;2023-06-14T11:16:17;25.70;48.00
19924;DHT22;10124;53.068;18.224;2023-06-14T11:21:17;25.30;74.30
19924;DHT22;10124;53.068;18.224;2023-06-14T11:23:52;25.20;77.80
19924;DHT22;10124;53.068;18.224;2023-06-14T11:26:29;26.40;28.30
19924;DHT22;10124;53.068;18.224;2023-06-14T11:28:59;26.30;1.00
19924;DHT22;10124;53.068;18.224;2023-06-14T11:31:28;25.70;1.00
19924;DHT22;10124;53.068;18.224;2023-06-14T11:33:57;26.00;1.00
19924;DHT22;10124;53.068;18.224;2023-06-14T11:36:30;26.50;1.00
19924;DHT22;10124;53.068;18.224;2023-06-14T11:39:03;26.40;1.00
19924;DHT22;10124;53.068;18.224;2023-06-14T11:41:42;25.60;1.00
19924;DHT22;10124;53.068;18.224;2023-06-14T11:49:10;25.00;1.00
19924;DHT22;10124;53.068;18.224;2023-06-14T11:51:37;25.10;1.00
19924;DHT22;10124;53.068;18.224;2023-06-14T11:54:06;24.80;1.00
19924;DHT22;10124;53.068;18.224;2023-06-14T11:56:36;24.60;1.00
19924;DHT22;10124;53.068;18.224;2023-06-14T11:59:05;24.50;1.00
19924;DHT22;10124;53.068;18.224;2023-06-14T12:01:36;24.50;1.00
19924;DHT22;10124;53.068;18.224;2023-06-14T12:04:04;24.70;30.00
19924;DHT22;10124;53.068;18.224;2023-06-14T12:06:32;24.60;1.00
19924;DHT22;10124;53.068;18.224;2023-06-14T12:09:08;24.40;2.20
19924;DHT22;10124;53.068;18.224;2023-06-14T12:11:41;23.90;1.00
19924;DHT22;10124;53.068;18.224;2023-06-14T12:14:09;23.80;1.00
19924;DHT22;10124;53.068;18.224;2023-06-14T12:16:39;23.40;26.00
19924;DHT22;10124;53.068;18.224;2023-06-14T12:19:16;23.00;18.60
19924;DHT22;10124;53.068;18.224;2023-06-14T12:21:46;22.70;25.00
19924;DHT22;10124;53.068;18.224;2023-06-14T12:24:19;22.40;13.80
19924;DHT22;10124;53.068;18.224;2023-06-14T12:29:16;23.00;23.30
19924;DHT22;10124;53.068;18.224;2023-06-14T12:31:48;22.10;48.80
19924;DHT22;10124;53.068;18.224;2023-06-14T12:34:17;22.70;3.30
19924;DHT22;10124;53.068;18.224;2023-06-14T12:36:45;23.00;22.30
19924;DHT22;10124;53.068;18.224;2023-06-14T12:39:14;21.70;1.00
19924;DHT22;10124;53.068;18.224;2023-06-14T12:41:42;22.00;1.00
19924;DHT22;10124;53.068;18.224;2023-06-14T12:44:12;22.00;13.40
19924;DHT22;10124;53.068;18.224;2023-06-14T12:46:42;21.90;1.00
19924;DHT22;10124;53.068;18.224;2023-06-14T12:57:06;22.30;69.70
19924;DHT22;10124;53.068;18.224;2023-06-14T13:02:14;21.80;99.90
19924;DHT22;10124;53.068;18.224;2023-06-14T13:09:41;21.50;99.90
19924;DHT22;10124;53.068;18.224;2023-06-14T13:12:12;21.20;99.90
19924;DHT22;10124;53.068;18.224;2023-06-14T13:24:40;21.50;99.90
19924;DHT22;10124;53.068;18.224;2023-06-14T13:27:15;22.30;99.90
19924;DHT22;10124;53.068;18.224;2023-06-14T13:32:12;21.50;99.90
19924;DHT22;10124;53.068;18.224;2023-06-14T13:34:44;22.00;99.90
19924;DHT22;10124;53.068;18.224;2023-06-14T13:39:40;20.80;99.90
19924;DHT22;10124;53.068;18.224;2023-06-14T13:42:08;20.70;99.90
19924;DHT22;10124;53.068;18.224;2023-06-14T13:44:37;20.50;99.90
19924;DHT22;10124;53.068;18.224;2023-06-14T13:49:33;20.50;99.90
19924;DHT22;10124;53.068;18.224;2023-06-14T13:52:03;20.80;99.90
19924;DHT22;10124;53.068;18.224;2023-06-14T13:56:59;21.10;99.90
19924;DHT22;10124;53.068;18.224;2023-06-14T14:01:57;20.60;99.90
19924;DHT22;10124;53.068;18.224;2023-06-14T14:09:23;20.70;99.90
19924;DHT22;10124;53.068;18.224;2023-06-14T14:16:51;20.20;99.90
19924;DHT22;10124;53.068;18.224;2023-06-14T14:19:24;20.40;99.90
19924;DHT22;10124;53.068;18.224;2023-06-14T14:24:21;20.80;99.90
19924;DHT22;10124;53.068;18.224;2023-06-14T14:26:50;20.30;99.90
19924;DHT22;10124;53.068;18.224;2023-06-14T14:29:22;21.10;99.90
19924;DHT22;10124;53.068;18.224;2023-06-14T14:31:55;20.40;99.90
19924;DHT22;10124;53.068;18.224;2023-06-14T14:34:25;20.20;99.90
19924;DHT22;10124;53.068;18.224;2023-06-14T14:39:24;20.80;99.90
19924;DHT22;10124;53.068;18.224;2023-06-14T14:41:53;19.80;99.90
19924;DHT22;10124;53.068;18.224;2023-06-14T14:46:53;19.50;99.90
19924;DHT22;10124;53.068;18.224;2023-06-14T14:51:51;19.80;99.90
19924;DHT22;10124;53.068;18.224;2023-06-14T14:54:19;19.00;99.90
19924;DHT22;10124;53.068;18.224;2023-06-14T14:56:47;19.00;99.90
19924;DHT22;10124;53.068;18.224;2023-06-14T14:59:17;18.90;1.00
19924;DHT22;10124;53.068;18.224;2023-06-14T15:01:47;18.90;1.00
19924;DHT22;10124;53.068;18.224;2023-06-14T15:04:17;18.80;1.00
19924;DHT22;10124;53.068;18.224;2023-06-14T15:06:46;18.40;1.00
19924;DHT22;10124;53.068;18.224;2023-06-14T15:09:14;17.90;1.00
19924;DHT22;10124;53.068;18.224;2023-06-14T15:11:43;17.40;1.00
19924;DHT22;10124;53.068;18.224;2023-06-14T15:14:12;16.60;1.00
19924;DHT22;10124;53.068;18.224;2023-06-14T15:16:40;16.50;1.00
19924;DHT22;10124;53.068;18.224;2023-06-14T15:19:09;16.70;1.00
19924;DHT22;10124;53.068;18.224;2023-06-14T15:21:37;16.00;1.00
19924;DHT22;10124;53.068;18.224;2023-06-14T15:24:07;17.00;1.00
19924;DHT22;10124;53.068;18.224;2023-06-14T15:26:36;16.30;1.00
19924;DHT22;10124;53.068;18.224;2023-06-14T15:31:36;15.90;1.00
19924;DHT22;10124;53.068;18.224;2023-06-14T15:34:05;16.30;1.00
19924;DHT22;10124;53.068;18.224;2023-06-14T15:36:35;16.80;1.00
19924;DHT22;10124;53.068;18.224;2023-06-14T15:44:05;16.80;1.00
19924;DHT22;10124;53.068;18.224;2023-06-14T15:46:34;16.50;1.00
19924;DHT22;10124;53.068;18.224;2023-06-14T15:49:09;16.60;27.10
19924;DHT22;10124;53.068;18.224;2023-06-14T15:51:37;16.40;1.00
19924;DHT22;10124;53.068;18.224;2023-06-14T15:54:06;16.10;99.90
19924;DHT22;10124;53.068;18.224;2023-06-14T15:56:35;15.60;11.70
19924;DHT22;10124;53.068;18.224;2023-06-14T15:59:02;16.40;3.00
19924;DHT22;10124;53.068;18.224;2023-06-14T16:01:31;16.40;1.10
19924;DHT22;10124;53.068;18.224;2023-06-14T16:04:01;16.50;1.00
19924;DHT22;10124;53.068;18.224;2023-06-14T16:06:30;17.10;1.00
19924;DHT22;10124;53.068;18.224;2023-06-14T16:08:58;16.40;1.00
19924;DHT22;10124;53.068;18.224;2023-06-14T16:11:27;16.70;1.00
19924;DHT22;10124;53.068;18.224;2023-06-14T16:13:56;16.00;99.90
19924;DHT22;10124;53.068;18.224;2023-06-14T16:16:24;15.80;99.90
19924;DHT22;10124;53.068;18.224;2023-06-14T16:18:52;16.50;65.10
19924;DHT22;10124;53.068;18.224;2023-06-14T16:21:25;16.00;99.90
19924;DHT22;10124;53.068;18.224;2023-06-14T16:23:55;17.10;99.90
19924;DHT22;10124;53.068;18.224;2023-06-14T16:26:23;16.30;1.00
19924;DHT22;10124;53.068;18.224;2023-06-14T16:28:52;17.00;1.00
19924;DHT22;10124;53.068;18.224;2023-06-14T16:31:21;16.80;1.00
19924;DHT22;10124;53.068;18.224;2023-06-14T16:33:51;17.20;1.00
19924;DHT22;10124;53.068;18.224;2023-06-14T16:36:24;16.30;1.00
19924;DHT22;10124;53.068;18.224;2023-06-14T16:38:52;17.20;1.00
19924;DHT22;10124;53.068;18.224;2023-06-14T16:41:22;17.00;1.00
19924;DHT22;10124;53.068;18.224;2023-06-14T16:43:52;16.70;1.00
19924;DHT22;10124;53.068;18.224;2023-06-14T16:46:33;16.80;1.00
19924;DHT22;10124;53.068;18.224;2023-06-14T16:49:04;16.90;1.00
19924;DHT22;10124;53.068;18.224;2023-06-14T16:51:33;16.40;1.00
19924;DHT22;10124;53.068;18.224;2023-06-14T16:54:02;16.80;1.00
19924;DHT22;10124;53.068;18.224;2023-06-14T16:56:31;16.00;1.00
19924;DHT22;10124;53.068;18.224;2023-06-14T17:01:31;16.30;1.00
19924;DHT22;10124;53.068;18.224;2023-06-14T17:04:03;16.30;1.00
19924;DHT22;10124;53.068;18.224;2023-06-14T17:06:30;16.20;1.00
19924;DHT22;10124;53.068;18.224;2023-06-14T17:08:59;16.00;1.00
19924;DHT22;10124;53.068;18.224;2023-06-14T17:11:26;16.00;1.00
19924;DHT22;10124;53.068;18.224;2023-06-14T17:13:55;15.90;1.00
19924;DHT22;10124;53.068;18.224;2023-06-14T17:16:23;15.90;1.00
19924;DHT22;10124;53.068;18.224;2023-06-14T17:18:53;15.90;1.00
19924;DHT22;10124;53.068;18.224;2023-06-14T17:21:22;15.90;1.00
19924;DHT22;10124;53.068;18.224;2023-06-14T17:23:51;15.90;1.00
19924;DHT22;10124;53.068;18.224;2023-06-14T17:26:20;15.80;1.00
19924;DHT22;10124;53.068;18.224;2023-06-14T17:28:49;15.90;1.00
19924;DHT22;10124;53.068;18.224;2023-06-14T17:31:21;15.80;1.00
19924;DHT22;10124;53.068;18.224;2023-06-14T17:33:50;15.80;1.00
19924;DHT22;10124;53.068;18.224;2023-06-14T17:36:19;15.80;1.00
19924;DHT22;10124;53.068;18.224;2023-06-14T17:38:49;15.80;1.00
19924;DHT22;10124;53.068;18.224;2023-06-14T17:41:17;15.40;1.00
19924;DHT22;10124;53.068;18.224;2023-06-14T17:43:46;16.60;1.00